sensor_id;sensor_type;location;lat;lon;timestamp;P1;durP1;ratioP1;P2;durP2;ratioP2
65315;SDS011;51920;53.952;10.292;2023-10-19T00:01:08;10.70;;;5.43;;
65315;SDS011;51920;53.952;10.292;2023-10-19T00:03:36;9.65;;;6.22;;
65315;SDS011;51920;53.952;10.292;2023-10-19T00:06:03;9.63;;;5.85;;
65315;SDS011;51920;53.952;10.292;2023-10-19T00:08:31;8.07;;;5.50;;
65315;SDS011;51920;53.952;10.292;2023-10-19T00:11:07;7.77;;;5.50;;
65315;SDS011;51920;53.952;10.292;2023-10-19T00:13:36;9.98;;;5.75;;
65315;SDS011;51920;53.952;10.292;2023-10-19T00:16:07;10.52;;;6.10;;
65315;SDS011;51920;53.952;10.292;2023-10-19T00:18:44;12.63;;;5.97;;
65315;SDS011;51920;53.952;10.292;2023-10-19T00:21:11;10.77;;;5.70;;
65315;SDS011;51920;53.952;10.292;2023-10-19T00:23:46;10.73;;;5.80;;
65315;SDS011;51920;53.952;10.292;2023-10-19T00:26:14;11.02;;;6.20;;
65315;SDS011;51920;53.952;10.292;2023-10-19T00:28:54;12.57;;;5.70;;
65315;SDS011;51920;53.952;10.292;2023-10-19T00:31:25;8.77;;;5.50;;
65315;SDS011;51920;53.952;10.292;2023-10-19T00:33:56;10.68;;;6.25;;
65315;SDS011;51920;53.952;10.292;2023-10-19T00:36:23;9.97;;;6.20;;
65315;SDS011;51920;53.952;10.292;2023-10-19T00:38:51;10.20;;;6.22;;
65315;SDS011;51920;53.952;10.292;2023-10-19T00:41:24;12.73;;;6.80;;
65315;SDS011;51920;53.952;10.292;2023-10-19T00:43:58;11.40;;;6.30;;
65315;SDS011;51920;53.952;10.292;2023-10-19T00:46:38;12.23;;;6.22;;
65315;SDS011;51920;53.952;10.292;2023-10-19T00:49:08;12.30;;;6.93;;
65315;SDS011;51920;53.952;10.292;2023-10-19T00:51:39;11.60;;;6.20;;
65315;SDS011;51920;53.952;10.292;2023-10-19T00:54:27;12.95;;;6.90;;
65315;SDS011;51920;53.952;10.292;2023-10-19T00:57:02;10.38;;;5.88;;
65315;SDS011;51920;53.952;10.292;2023-10-19T00:59:32;15.57;;;6.80;;
65315;SDS011;51920;53.952;10.292;2023-10-19T01:02:05;12.57;;;6.77;;
65315;SDS011;51920;53.952;10.292;2023-10-19T01:04:47;10.68;;;6.03;;
65315;SDS011;51920;53.952;10.292;2023-10-19T01:07:22;12.98;;;6.80;;
65315;SDS011;51920;53.952;10.292;2023-10-19T01:09:59;9.32;;;4.85;;
65315;SDS011;51920;53.952;10.292;2023-10-19T01:12:28;12.13;;;6.95;;
65315;SDS011;51920;53.952;10.292;2023-10-19T01:17:36;11.40;;;6.50;;
65315;SDS011;51920;53.952;10.292;2023-10-19T01:20:10;9.15;;;5.70;;
65315;SDS011;51920;53.952;10.292;2023-10-19T01:23:02;14.25;;;6.60;;
65315;SDS011;51920;53.952;10.292;2023-10-19T01:25:55;13.50;;;6.93;;
65315;SDS011;51920;53.952;10.292;2023-10-19T01:28:24;11.63;;;6.53;;
65315;SDS011;51920;53.952;10.292;2023-10-19T01:31:08;12.70;;;6.55;;
65315;SDS011;51920;53.952;10.292;2023-10-19T01:33:41;11.32;;;6.80;;
65315;SDS011;51920;53.952;10.292;2023-10-19T01:36:08;11.30;;;6.60;;
65315;SDS011;51920;53.952;10.292;2023-10-19T01:38:38;10.57;;;6.55;;
65315;SDS011;51920;53.952;10.292;2023-10-19T01:41:05;11.27;;;6.13;;
65315;SDS011;51920;53.952;10.292;2023-10-19T01:43:46;11.25;;;6.57;;
65315;SDS011;51920;53.952;10.292;2023-10-19T01:46:16;11.00;;;6.90;;
65315;SDS011;51920;53.952;10.292;2023-10-19T01:49:03;12.25;;;6.47;;
65315;SDS011;51920;53.952;10.292;2023-10-19T01:51:31;12.20;;;6.75;;
65315;SDS011;51920;53.952;10.292;2023-10-19T01:54:05;11.67;;;6.67;;
65315;SDS011;51920;53.952;10.292;2023-10-19T01:56:33;12.15;;;6.70;;
65315;SDS011;51920;53.952;10.292;2023-10-19T01:59:02;11.07;;;6.53;;
65315;SDS011;51920;53.952;10.292;2023-10-19T02:01:30;11.63;;;6.55;;
65315;SDS011;51920;53.952;10.292;2023-10-19T02:03:59;11.98;;;6.38;;
65315;SDS011;51920;53.952;10.292;2023-10-19T02:06:30;13.43;;;6.57;;
65315;SDS011;51920;53.952;10.292;2023-10-19T02:09:02;12.52;;;6.90;;
65315;SDS011;51920;53.952;10.292;2023-10-19T02:11:44;12.07;;;6.57;;
65315;SDS011;51920;53.952;10.292;2023-10-19T02:14:18;11.65;;;6.40;;
65315;SDS011;51920;53.952;10.292;2023-10-19T02:16:46;11.85;;;6.70;;
65315;SDS011;51920;53.952;10.292;2023-10-19T02:19:18;13.37;;;7.40;;
65315;SDS011;51920;53.952;10.292;2023-10-19T02:21:50;14.90;;;7.38;;
65315;SDS011;51920;53.952;10.292;2023-10-19T02:24:18;12.55;;;7.00;;
65315;SDS011;51920;53.952;10.292;2023-10-19T02:26:47;15.38;;;7.00;;
65315;SDS011;51920;53.952;10.292;2023-10-19T02:29:17;14.30;;;7.07;;
65315;SDS011;51920;53.952;10.292;2023-10-19T02:31:45;15.23;;;6.60;;
65315;SDS011;51920;53.952;10.292;2023-10-19T02:34:14;13.68;;;6.75;;
65315;SDS011;51920;53.952;10.292;2023-10-19T02:36:42;15.15;;;7.07;;
65315;SDS011;51920;53.952;10.292;2023-10-19T02:39:10;12.13;;;7.03;;
65315;SDS011;51920;53.952;10.292;2023-10-19T02:41:39;13.70;;;7.30;;
65315;SDS011;51920;53.952;10.292;2023-10-19T02:44:08;13.70;;;7.60;;
65315;SDS011;51920;53.952;10.292;2023-10-19T02:46:43;13.05;;;7.03;;
65315;SDS011;51920;53.952;10.292;2023-10-19T02:49:13;13.02;;;7.65;;
65315;SDS011;51920;53.952;10.292;2023-10-19T02:51:44;15.27;;;7.65;;
65315;SDS011;51920;53.952;10.292;2023-10-19T02:54:12;12.40;;;7.07;;
65315;SDS011;51920;53.952;10.292;2023-10-19T02:56:50;12.63;;;7.00;;
65315;SDS011;51920;53.952;10.292;2023-10-19T02:59:28;13.27;;;7.35;;
65315;SDS011;51920;53.952;10.292;2023-10-19T03:01:56;12.57;;;7.28;;
65315;SDS011;51920;53.952;10.292;2023-10-19T03:04:28;13.63;;;7.85;;
65315;SDS011;51920;53.952;10.292;2023-10-19T03:06:55;12.50;;;7.30;;
65315;SDS011;51920;53.952;10.292;2023-10-19T03:09:25;12.73;;;7.70;;
65315;SDS011;51920;53.952;10.292;2023-10-19T03:11:56;13.88;;;7.32;;
65315;SDS011;51920;53.952;10.292;2023-10-19T03:14:26;15.07;;;7.55;;
65315;SDS011;51920;53.952;10.292;2023-10-19T03:16:53;13.63;;;7.78;;
65315;SDS011;51920;53.952;10.292;2023-10-19T03:19:23;13.35;;;7.50;;
65315;SDS011;51920;53.952;10.292;2023-10-19T03:21:53;14.23;;;7.70;;
65315;SDS011;51920;53.952;10.292;2023-10-19T03:24:26;15.02;;;8.02;;
65315;SDS011;51920;53.952;10.292;2023-10-19T03:27:03;13.48;;;7.50;;
65315;SDS011;51920;53.952;10.292;2023-10-19T03:29:47;13.38;;;7.72;;
65315;SDS011;51920;53.952;10.292;2023-10-19T03:32:20;13.63;;;7.60;;
65315;SDS011;51920;53.952;10.292;2023-10-19T03:34:52;13.60;;;7.63;;
65315;SDS011;51920;53.952;10.292;2023-10-19T03:37:23;14.05;;;7.53;;
65315;SDS011;51920;53.952;10.292;2023-10-19T03:39:51;15.10;;;7.82;;
65315;SDS011;51920;53.952;10.292;2023-10-19T03:42:18;14.30;;;7.63;;
65315;SDS011;51920;53.952;10.292;2023-10-19T03:44:47;14.48;;;7.90;;
65315;SDS011;51920;53.952;10.292;2023-10-19T03:47:14;13.63;;;7.67;;
65315;SDS011;51920;53.952;10.292;2023-10-19T03:49:45;16.48;;;8.02;;
65315;SDS011;51920;53.952;10.292;2023-10-19T03:52:17;12.68;;;7.70;;
65315;SDS011;51920;53.952;10.292;2023-10-19T03:54:44;16.48;;;7.55;;
65315;SDS011;51920;53.952;10.292;2023-10-19T03:57:11;16.83;;;7.95;;
65315;SDS011;51920;53.952;10.292;2023-10-19T03:59:39;15.07;;;8.10;;
65315;SDS011;51920;53.952;10.292;2023-10-19T04:02:07;13.55;;;7.38;;
65315;SDS011;51920;53.952;10.292;2023-10-19T04:04:40;14.43;;;7.35;;
65315;SDS011;51920;53.952;10.292;2023-10-19T04:07:10;13.95;;;7.72;;
65315;SDS011;51920;53.952;10.292;2023-10-19T04:09:42;13.38;;;7.40;;
65315;SDS011;51920;53.952;10.292;2023-10-19T04:12:23;14.50;;;7.60;;
65315;SDS011;51920;53.952;10.292;2023-10-19T04:14:57;15.10;;;7.93;;
65315;SDS011;51920;53.952;10.292;2023-10-19T04:17:27;13.50;;;7.60;;
65315;SDS011;51920;53.952;10.292;2023-10-19T04:19:54;14.43;;;6.70;;
65315;SDS011;51920;53.952;10.292;2023-10-19T04:22:22;14.00;;;7.90;;
65315;SDS011;51920;53.952;10.292;2023-10-19T04:24:52;12.30;;;6.90;;
65315;SDS011;51920;53.952;10.292;2023-10-19T04:27:19;15.90;;;7.70;;
65315;SDS011;51920;53.952;10.292;2023-10-19T04:29:52;14.07;;;7.93;;
65315;SDS011;51920;53.952;10.292;2023-10-19T04:32:19;13.30;;;7.75;;
65315;SDS011;51920;53.952;10.292;2023-10-19T04:34:52;13.30;;;7.55;;
65315;SDS011;51920;53.952;10.292;2023-10-19T04:37:19;14.13;;;7.27;;
65315;SDS011;51920;53.952;10.292;2023-10-19T04:39:46;14.40;;;7.72;;
65315;SDS011;51920;53.952;10.292;2023-10-19T04:42:13;13.82;;;7.55;;
65315;SDS011;51920;53.952;10.292;2023-10-19T04:44:40;12.13;;;7.65;;
65315;SDS011;51920;53.952;10.292;2023-10-19T04:47:07;14.15;;;7.47;;
65315;SDS011;51920;53.952;10.292;2023-10-19T04:49:38;12.70;;;7.17;;
65315;SDS011;51920;53.952;10.292;2023-10-19T04:52:05;13.85;;;7.70;;
65315;SDS011;51920;53.952;10.292;2023-10-19T04:54:32;12.98;;;7.68;;
65315;SDS011;51920;53.952;10.292;2023-10-19T04:56:59;14.25;;;7.50;;
65315;SDS011;51920;53.952;10.292;2023-10-19T04:59:29;14.00;;;8.07;;
65315;SDS011;51920;53.952;10.292;2023-10-19T05:01:59;14.67;;;7.43;;
65315;SDS011;51920;53.952;10.292;2023-10-19T05:04:29;13.55;;;8.05;;
65315;SDS011;51920;53.952;10.292;2023-10-19T05:06:56;12.75;;;6.97;;
65315;SDS011;51920;53.952;10.292;2023-10-19T05:09:22;13.77;;;7.45;;
65315;SDS011;51920;53.952;10.292;2023-10-19T05:11:49;13.15;;;7.80;;
65315;SDS011;51920;53.952;10.292;2023-10-19T05:14:18;14.50;;;7.73;;
65315;SDS011;51920;53.952;10.292;2023-10-19T05:16:44;12.95;;;7.20;;
65315;SDS011;51920;53.952;10.292;2023-10-19T05:19:11;13.70;;;8.07;;
65315;SDS011;51920;53.952;10.292;2023-10-19T05:21:38;13.48;;;7.60;;
65315;SDS011;51920;53.952;10.292;2023-10-19T05:24:04;14.43;;;8.20;;
65315;SDS011;51920;53.952;10.292;2023-10-19T05:26:35;14.67;;;8.23;;
65315;SDS011;51920;53.952;10.292;2023-10-19T05:29:02;16.30;;;8.73;;
65315;SDS011;51920;53.952;10.292;2023-10-19T05:31:29;14.55;;;7.35;;
65315;SDS011;51920;53.952;10.292;2023-10-19T05:33:58;14.30;;;7.97;;
65315;SDS011;51920;53.952;10.292;2023-10-19T05:36:24;15.77;;;8.77;;
65315;SDS011;51920;53.952;10.292;2023-10-19T05:38:51;15.63;;;8.27;;
65315;SDS011;51920;53.952;10.292;2023-10-19T05:41:18;18.13;;;9.05;;
65315;SDS011;51920;53.952;10.292;2023-10-19T05:43:47;16.42;;;8.07;;
65315;SDS011;51920;53.952;10.292;2023-10-19T05:46:14;18.55;;;8.90;;
65315;SDS011;51920;53.952;10.292;2023-10-19T05:48:44;16.35;;;8.73;;
65315;SDS011;51920;53.952;10.292;2023-10-19T05:51:11;18.47;;;8.77;;
65315;SDS011;51920;53.952;10.292;2023-10-19T05:53:40;17.30;;;8.63;;
65315;SDS011;51920;53.952;10.292;2023-10-19T05:56:07;16.25;;;9.05;;
65315;SDS011;51920;53.952;10.292;2023-10-19T05:58:34;19.02;;;9.10;;
65315;SDS011;51920;53.952;10.292;2023-10-19T06:01:01;18.73;;;9.10;;
65315;SDS011;51920;53.952;10.292;2023-10-19T06:03:28;18.03;;;9.30;;
65315;SDS011;51920;53.952;10.292;2023-10-19T06:05:55;18.90;;;9.07;;
65315;SDS011;51920;53.952;10.292;2023-10-19T06:08:22;19.05;;;9.95;;
65315;SDS011;51920;53.952;10.292;2023-10-19T06:10:52;20.52;;;9.77;;
65315;SDS011;51920;53.952;10.292;2023-10-19T06:13:19;17.02;;;8.18;;
65315;SDS011;51920;53.952;10.292;2023-10-19T06:15:47;16.50;;;9.73;;
65315;SDS011;51920;53.952;10.292;2023-10-19T06:18:14;19.52;;;9.68;;
65315;SDS011;51920;53.952;10.292;2023-10-19T06:20:44;18.23;;;9.15;;
65315;SDS011;51920;53.952;10.292;2023-10-19T06:23:11;17.42;;;9.30;;
65315;SDS011;51920;53.952;10.292;2023-10-19T06:25:38;18.40;;;8.80;;
65315;SDS011;51920;53.952;10.292;2023-10-19T06:28:05;19.27;;;9.53;;
65315;SDS011;51920;53.952;10.292;2023-10-19T06:30:33;20.17;;;9.65;;
65315;SDS011;51920;53.952;10.292;2023-10-19T06:33:00;19.48;;;9.70;;
65315;SDS011;51920;53.952;10.292;2023-10-19T06:35:28;19.23;;;9.05;;
65315;SDS011;51920;53.952;10.292;2023-10-19T06:37:58;18.73;;;10.10;;
65315;SDS011;51920;53.952;10.292;2023-10-19T06:40:30;18.37;;;9.33;;
65315;SDS011;51920;53.952;10.292;2023-10-19T06:42:57;21.27;;;9.65;;
65315;SDS011;51920;53.952;10.292;2023-10-19T06:45:25;19.90;;;9.70;;
65315;SDS011;51920;53.952;10.292;2023-10-19T06:47:52;19.52;;;9.43;;
65315;SDS011;51920;53.952;10.292;2023-10-19T06:50:19;19.50;;;9.85;;
65315;SDS011;51920;53.952;10.292;2023-10-19T06:52:47;17.30;;;8.73;;
65315;SDS011;51920;53.952;10.292;2023-10-19T06:55:15;19.40;;;9.25;;
65315;SDS011;51920;53.952;10.292;2023-10-19T06:57:48;21.60;;;8.95;;
65315;SDS011;51920;53.952;10.292;2023-10-19T07:00:17;18.42;;;9.43;;
65315;SDS011;51920;53.952;10.292;2023-10-19T07:02:48;19.30;;;9.40;;
65315;SDS011;51920;53.952;10.292;2023-10-19T07:05:17;19.50;;;9.37;;
65315;SDS011;51920;53.952;10.292;2023-10-19T07:07:47;19.88;;;9.68;;
65315;SDS011;51920;53.952;10.292;2023-10-19T07:10:16;19.83;;;9.68;;
65315;SDS011;51920;53.952;10.292;2023-10-19T07:12:44;18.77;;;8.45;;
65315;SDS011;51920;53.952;10.292;2023-10-19T07:15:13;17.75;;;9.52;;
65315;SDS011;51920;53.952;10.292;2023-10-19T07:17:40;17.37;;;8.70;;
65315;SDS011;51920;53.952;10.292;2023-10-19T07:20:08;16.10;;;8.77;;
65315;SDS011;51920;53.952;10.292;2023-10-19T07:22:48;17.98;;;9.20;;
65315;SDS011;51920;53.952;10.292;2023-10-19T07:25:15;18.88;;;9.05;;
65315;SDS011;51920;53.952;10.292;2023-10-19T07:27:42;20.70;;;10.20;;
65315;SDS011;51920;53.952;10.292;2023-10-19T07:30:09;18.00;;;9.13;;
65315;SDS011;51920;53.952;10.292;2023-10-19T07:32:36;20.70;;;9.77;;
65315;SDS011;51920;53.952;10.292;2023-10-19T07:35:02;16.73;;;9.45;;
65315;SDS011;51920;53.952;10.292;2023-10-19T07:37:30;18.45;;;9.93;;
65315;SDS011;51920;53.952;10.292;2023-10-19T07:39:58;19.02;;;9.75;;
65315;SDS011;51920;53.952;10.292;2023-10-19T07:42:24;18.70;;;9.90;;
65315;SDS011;51920;53.952;10.292;2023-10-19T07:44:51;19.15;;;9.57;;
65315;SDS011;51920;53.952;10.292;2023-10-19T07:47:18;18.45;;;9.48;;
65315;SDS011;51920;53.952;10.292;2023-10-19T07:49:45;18.60;;;9.52;;
65315;SDS011;51920;53.952;10.292;2023-10-19T07:52:14;19.80;;;9.52;;
65315;SDS011;51920;53.952;10.292;2023-10-19T07:54:40;17.47;;;8.87;;
65315;SDS011;51920;53.952;10.292;2023-10-19T07:57:07;19.73;;;9.45;;
65315;SDS011;51920;53.952;10.292;2023-10-19T07:59:34;18.98;;;9.63;;
65315;SDS011;51920;53.952;10.292;2023-10-19T08:02:01;18.73;;;9.07;;
65315;SDS011;51920;53.952;10.292;2023-10-19T08:04:31;17.60;;;9.30;;
65315;SDS011;51920;53.952;10.292;2023-10-19T08:06:58;18.57;;;9.20;;
65315;SDS011;51920;53.952;10.292;2023-10-19T08:09:25;18.95;;;9.20;;
65315;SDS011;51920;53.952;10.292;2023-10-19T08:11:58;19.70;;;9.43;;
65315;SDS011;51920;53.952;10.292;2023-10-19T08:14:27;21.27;;;9.50;;
65315;SDS011;51920;53.952;10.292;2023-10-19T08:16:54;19.53;;;9.57;;
65315;SDS011;51920;53.952;10.292;2023-10-19T08:19:20;16.25;;;8.88;;
65315;SDS011;51920;53.952;10.292;2023-10-19T08:21:47;16.40;;;8.98;;
65315;SDS011;51920;53.952;10.292;2023-10-19T08:24:13;16.65;;;9.13;;
65315;SDS011;51920;53.952;10.292;2023-10-19T08:26:42;16.00;;;8.70;;
65315;SDS011;51920;53.952;10.292;2023-10-19T08:29:08;18.97;;;9.90;;
65315;SDS011;51920;53.952;10.292;2023-10-19T08:31:41;17.50;;;8.40;;
65315;SDS011;51920;53.952;10.292;2023-10-19T08:34:09;19.63;;;9.32;;
65315;SDS011;51920;53.952;10.292;2023-10-19T08:36:39;16.60;;;8.77;;
65315;SDS011;51920;53.952;10.292;2023-10-19T08:39:07;18.85;;;9.27;;
65315;SDS011;51920;53.952;10.292;2023-10-19T08:41:34;16.00;;;8.87;;
65315;SDS011;51920;53.952;10.292;2023-10-19T08:44:07;17.52;;;9.07;;
65315;SDS011;51920;53.952;10.292;2023-10-19T08:46:40;20.90;;;9.38;;
65315;SDS011;51920;53.952;10.292;2023-10-19T08:49:10;16.58;;;8.65;;
65315;SDS011;51920;53.952;10.292;2023-10-19T08:51:39;17.33;;;9.38;;
65315;SDS011;51920;53.952;10.292;2023-10-19T08:54:06;14.60;;;8.27;;
65315;SDS011;51920;53.952;10.292;2023-10-19T08:56:32;15.85;;;8.23;;
65315;SDS011;51920;53.952;10.292;2023-10-19T08:59:02;16.92;;;8.52;;
65315;SDS011;51920;53.952;10.292;2023-10-19T09:01:29;16.95;;;8.82;;
65315;SDS011;51920;53.952;10.292;2023-10-19T09:03:56;17.00;;;8.73;;
65315;SDS011;51920;53.952;10.292;2023-10-19T09:06:27;17.10;;;8.37;;
65315;SDS011;51920;53.952;10.292;2023-10-19T09:08:55;13.80;;;8.13;;
65315;SDS011;51920;53.952;10.292;2023-10-19T09:11:24;16.27;;;8.55;;
65315;SDS011;51920;53.952;10.292;2023-10-19T09:13:51;17.35;;;8.68;;
65315;SDS011;51920;53.952;10.292;2023-10-19T09:16:19;15.75;;;8.77;;
65315;SDS011;51920;53.952;10.292;2023-10-19T09:18:47;16.03;;;8.10;;
65315;SDS011;51920;53.952;10.292;2023-10-19T09:21:20;15.57;;;7.82;;
65315;SDS011;51920;53.952;10.292;2023-10-19T09:23:51;16.80;;;8.95;;
65315;SDS011;51920;53.952;10.292;2023-10-19T09:26:27;15.10;;;8.38;;
65315;SDS011;51920;53.952;10.292;2023-10-19T09:28:54;17.42;;;9.07;;
65315;SDS011;51920;53.952;10.292;2023-10-19T09:31:20;16.40;;;8.10;;
65315;SDS011;51920;53.952;10.292;2023-10-19T09:33:49;16.02;;;8.05;;
65315;SDS011;51920;53.952;10.292;2023-10-19T09:36:16;15.80;;;8.70;;
65315;SDS011;51920;53.952;10.292;2023-10-19T09:38:47;15.27;;;8.77;;
65315;SDS011;51920;53.952;10.292;2023-10-19T09:41:17;15.80;;;8.43;;
65315;SDS011;51920;53.952;10.292;2023-10-19T09:43:46;16.23;;;8.70;;
65315;SDS011;51920;53.952;10.292;2023-10-19T09:46:22;14.93;;;8.57;;
65315;SDS011;51920;53.952;10.292;2023-10-19T09:48:52;19.60;;;8.82;;
65315;SDS011;51920;53.952;10.292;2023-10-19T09:51:19;15.25;;;8.35;;
65315;SDS011;51920;53.952;10.292;2023-10-19T09:53:49;15.50;;;8.73;;
65315;SDS011;51920;53.952;10.292;2023-10-19T09:56:30;15.40;;;8.37;;
65315;SDS011;51920;53.952;10.292;2023-10-19T09:59:04;15.35;;;7.90;;
65315;SDS011;51920;53.952;10.292;2023-10-19T10:02:02;14.82;;;8.52;;
65315;SDS011;51920;53.952;10.292;2023-10-19T10:04:31;18.20;;;9.13;;
65315;SDS011;51920;53.952;10.292;2023-10-19T10:06:59;14.43;;;8.75;;
65315;SDS011;51920;53.952;10.292;2023-10-19T10:09:26;15.10;;;8.33;;
65315;SDS011;51920;53.952;10.292;2023-10-19T10:11:53;16.10;;;8.60;;
65315;SDS011;51920;53.952;10.292;2023-10-19T10:14:21;15.75;;;8.70;;
65315;SDS011;51920;53.952;10.292;2023-10-19T10:17:03;15.60;;;8.55;;
65315;SDS011;51920;53.952;10.292;2023-10-19T10:19:31;17.05;;;8.98;;
65315;SDS011;51920;53.952;10.292;2023-10-19T10:22:08;19.40;;;9.53;;
65315;SDS011;51920;53.952;10.292;2023-10-19T10:24:41;15.23;;;9.50;;
65315;SDS011;51920;53.952;10.292;2023-10-19T10:27:08;21.23;;;9.57;;
65315;SDS011;51920;53.952;10.292;2023-10-19T10:29:36;16.13;;;8.52;;
65315;SDS011;51920;53.952;10.292;2023-10-19T10:32:04;18.52;;;9.02;;
65315;SDS011;51920;53.952;10.292;2023-10-19T10:37:05;18.88;;;8.70;;
65315;SDS011;51920;53.952;10.292;2023-10-19T10:39:35;18.95;;;9.40;;
65315;SDS011;51920;53.952;10.292;2023-10-19T10:42:03;15.80;;;8.68;;
65315;SDS011;51920;53.952;10.292;2023-10-19T10:44:36;16.95;;;9.32;;
65315;SDS011;51920;53.952;10.292;2023-10-19T10:47:10;17.07;;;9.00;;
65315;SDS011;51920;53.952;10.292;2023-10-19T10:49:53;17.15;;;9.40;;
65315;SDS011;51920;53.952;10.292;2023-10-19T10:52:29;16.00;;;9.00;;
65315;SDS011;51920;53.952;10.292;2023-10-19T10:54:56;18.15;;;9.48;;
65315;SDS011;51920;53.952;10.292;2023-10-19T10:57:23;16.40;;;9.48;;
65315;SDS011;51920;53.952;10.292;2023-10-19T11:00:04;17.10;;;9.17;;
65315;SDS011;51920;53.952;10.292;2023-10-19T11:02:42;15.63;;;9.32;;
65315;SDS011;51920;53.952;10.292;2023-10-19T11:05:13;18.13;;;9.65;;
65315;SDS011;51920;53.952;10.292;2023-10-19T11:07:41;16.83;;;9.30;;
65315;SDS011;51920;53.952;10.292;2023-10-19T11:10:28;16.80;;;9.00;;
65315;SDS011;51920;53.952;10.292;2023-10-19T11:13:05;18.97;;;9.70;;
65315;SDS011;51920;53.952;10.292;2023-10-19T11:15:33;18.50;;;8.90;;
65315;SDS011;51920;53.952;10.292;2023-10-19T11:18:04;17.20;;;9.57;;
65315;SDS011;51920;53.952;10.292;2023-10-19T11:20:33;17.80;;;9.07;;
65315;SDS011;51920;53.952;10.292;2023-10-19T11:23:00;16.00;;;9.48;;
65315;SDS011;51920;53.952;10.292;2023-10-19T11:25:28;16.27;;;9.53;;
65315;SDS011;51920;53.952;10.292;2023-10-19T11:27:56;19.63;;;9.50;;
65315;SDS011;51920;53.952;10.292;2023-10-19T11:30:30;19.05;;;9.52;;
65315;SDS011;51920;53.952;10.292;2023-10-19T11:32:58;16.92;;;9.43;;
65315;SDS011;51920;53.952;10.292;2023-10-19T11:35:26;18.10;;;9.73;;
65315;SDS011;51920;53.952;10.292;2023-10-19T11:37:57;17.90;;;9.50;;
65315;SDS011;51920;53.952;10.292;2023-10-19T11:40:31;18.92;;;9.70;;
65315;SDS011;51920;53.952;10.292;2023-10-19T11:42:57;16.38;;;9.25;;
65315;SDS011;51920;53.952;10.292;2023-10-19T11:45:27;18.13;;;9.82;;
65315;SDS011;51920;53.952;10.292;2023-10-19T11:47:55;19.35;;;9.98;;
65315;SDS011;51920;53.952;10.292;2023-10-19T11:50:23;17.33;;;9.80;;
65315;SDS011;51920;53.952;10.292;2023-10-19T11:52:50;18.42;;;9.02;;
65315;SDS011;51920;53.952;10.292;2023-10-19T11:55:17;19.67;;;9.60;;
65315;SDS011;51920;53.952;10.292;2023-10-19T11:57:43;19.20;;;9.65;;
65315;SDS011;51920;53.952;10.292;2023-10-19T12:00:10;17.17;;;9.73;;
65315;SDS011;51920;53.952;10.292;2023-10-19T12:02:48;19.57;;;9.93;;
65315;SDS011;51920;53.952;10.292;2023-10-19T12:05:14;15.35;;;9.50;;
65315;SDS011;51920;53.952;10.292;2023-10-19T12:07:41;20.58;;;9.05;;
65315;SDS011;51920;53.952;10.292;2023-10-19T12:10:11;18.98;;;9.45;;
65315;SDS011;51920;53.952;10.292;2023-10-19T12:12:38;18.42;;;9.90;;
65315;SDS011;51920;53.952;10.292;2023-10-19T12:15:11;24.70;;;10.40;;
65315;SDS011;51920;53.952;10.292;2023-10-19T12:17:41;18.00;;;9.50;;
65315;SDS011;51920;53.952;10.292;2023-10-19T12:20:08;19.30;;;10.48;;
65315;SDS011;51920;53.952;10.292;2023-10-19T12:22:34;20.55;;;10.27;;
65315;SDS011;51920;53.952;10.292;2023-10-19T12:25:05;17.60;;;10.13;;
65315;SDS011;51920;53.952;10.292;2023-10-19T12:27:32;19.77;;;10.40;;
65315;SDS011;51920;53.952;10.292;2023-10-19T12:29:59;37.92;;;17.05;;
65315;SDS011;51920;53.952;10.292;2023-10-19T12:32:26;25.80;;;11.52;;
65315;SDS011;51920;53.952;10.292;2023-10-19T12:34:52;26.15;;;13.43;;
65315;SDS011;51920;53.952;10.292;2023-10-19T12:37:23;18.45;;;9.88;;
65315;SDS011;51920;53.952;10.292;2023-10-19T12:39:54;20.33;;;11.17;;
65315;SDS011;51920;53.952;10.292;2023-10-19T12:42:21;19.90;;;10.30;;
65315;SDS011;51920;53.952;10.292;2023-10-19T12:44:49;18.00;;;9.48;;
65315;SDS011;51920;53.952;10.292;2023-10-19T12:47:15;17.75;;;10.13;;
65315;SDS011;51920;53.952;10.292;2023-10-19T12:49:43;21.02;;;10.32;;
65315;SDS011;51920;53.952;10.292;2023-10-19T12:52:14;18.73;;;10.07;;
65315;SDS011;51920;53.952;10.292;2023-10-19T12:54:41;16.98;;;9.73;;
65315;SDS011;51920;53.952;10.292;2023-10-19T12:57:10;18.27;;;10.13;;
65315;SDS011;51920;53.952;10.292;2023-10-19T12:59:37;18.73;;;9.77;;
65315;SDS011;51920;53.952;10.292;2023-10-19T13:02:06;17.90;;;10.48;;
65315;SDS011;51920;53.952;10.292;2023-10-19T13:04:36;16.70;;;9.20;;
65315;SDS011;51920;53.952;10.292;2023-10-19T13:07:03;19.02;;;10.23;;
65315;SDS011;51920;53.952;10.292;2023-10-19T13:09:31;16.90;;;10.43;;
65315;SDS011;51920;53.952;10.292;2023-10-19T13:11:57;17.80;;;9.52;;
65315;SDS011;51920;53.952;10.292;2023-10-19T13:14:26;17.27;;;10.00;;
65315;SDS011;51920;53.952;10.292;2023-10-19T13:16:53;19.67;;;9.83;;
65315;SDS011;51920;53.952;10.292;2023-10-19T13:19:21;16.98;;;10.20;;
65315;SDS011;51920;53.952;10.292;2023-10-19T13:21:51;17.48;;;10.05;;
65315;SDS011;51920;53.952;10.292;2023-10-19T13:24:18;18.67;;;10.40;;
65315;SDS011;51920;53.952;10.292;2023-10-19T13:26:48;18.73;;;10.13;;
65315;SDS011;51920;53.952;10.292;2023-10-19T13:29:15;17.77;;;9.87;;
65315;SDS011;51920;53.952;10.292;2023-10-19T13:31:41;18.67;;;10.25;;
65315;SDS011;51920;53.952;10.292;2023-10-19T13:34:15;19.05;;;10.43;;
65315;SDS011;51920;53.952;10.292;2023-10-19T13:36:42;18.35;;;9.57;;
65315;SDS011;51920;53.952;10.292;2023-10-19T13:39:11;16.02;;;9.27;;
65315;SDS011;51920;53.952;10.292;2023-10-19T13:41:42;16.00;;;9.53;;
65315;SDS011;51920;53.952;10.292;2023-10-19T13:44:10;16.10;;;9.18;;
65315;SDS011;51920;53.952;10.292;2023-10-19T13:46:38;15.68;;;9.48;;
65315;SDS011;51920;53.952;10.292;2023-10-19T13:49:04;17.80;;;9.82;;
65315;SDS011;51920;53.952;10.292;2023-10-19T13:51:32;16.88;;;9.27;;
65315;SDS011;51920;53.952;10.292;2023-10-19T13:53:59;17.87;;;9.47;;
65315;SDS011;51920;53.952;10.292;2023-10-19T13:56:26;17.38;;;9.43;;
65315;SDS011;51920;53.952;10.292;2023-10-19T13:58:53;16.85;;;9.73;;
65315;SDS011;51920;53.952;10.292;2023-10-19T14:01:20;20.83;;;10.20;;
65315;SDS011;51920;53.952;10.292;2023-10-19T14:03:51;16.83;;;9.38;;
65315;SDS011;51920;53.952;10.292;2023-10-19T14:06:21;15.83;;;9.03;;
65315;SDS011;51920;53.952;10.292;2023-10-19T14:08:48;17.00;;;9.57;;
65315;SDS011;51920;53.952;10.292;2023-10-19T14:11:15;16.98;;;9.52;;
65315;SDS011;51920;53.952;10.292;2023-10-19T14:13:42;17.77;;;9.98;;
65315;SDS011;51920;53.952;10.292;2023-10-19T14:16:09;17.80;;;10.35;;
65315;SDS011;51920;53.952;10.292;2023-10-19T14:18:36;18.33;;;10.00;;
65315;SDS011;51920;53.952;10.292;2023-10-19T14:21:16;16.40;;;9.73;;
65315;SDS011;51920;53.952;10.292;2023-10-19T14:23:46;18.45;;;9.77;;
65315;SDS011;51920;53.952;10.292;2023-10-19T14:26:14;18.10;;;10.02;;
65315;SDS011;51920;53.952;10.292;2023-10-19T14:28:41;17.75;;;10.30;;
65315;SDS011;51920;53.952;10.292;2023-10-19T14:31:07;17.23;;;10.00;;
65315;SDS011;51920;53.952;10.292;2023-10-19T14:33:34;17.10;;;9.48;;
65315;SDS011;51920;53.952;10.292;2023-10-19T14:36:02;17.17;;;10.18;;
65315;SDS011;51920;53.952;10.292;2023-10-19T14:38:30;19.35;;;10.02;;
65315;SDS011;51920;53.952;10.292;2023-10-19T14:40:56;16.83;;;10.13;;